sensor_id;sensor_type;location;lat;lon;timestamp;P1;durP1;ratioP1;P2;durP2;ratioP2
40154;SDS011;25875;48.202;16.334;2023-10-31T00:01:31;5.43;;;3.50;;
40154;SDS011;25875;48.202;16.334;2023-10-31T00:03:58;8.77;;;3.25;;
40154;SDS011;25875;48.202;16.334;2023-10-31T00:06:26;6.55;;;3.00;;
40154;SDS011;25875;48.202;16.334;2023-10-31T00:08:53;5.90;;;3.50;;
40154;SDS011;25875;48.202;16.334;2023-10-31T00:11:20;5.03;;;3.28;;
40154;SDS011;25875;48.202;16.334;2023-10-31T00:13:47;5.38;;;3.22;;
40154;SDS011;25875;48.202;16.334;2023-10-31T00:16:13;8.02;;;3.30;;
40154;SDS011;25875;48.202;16.334;2023-10-31T00:18:40;4.50;;;3.20;;
40154;SDS011;25875;48.202;16.334;2023-10-31T00:21:07;4.68;;;3.20;;
40154;SDS011;25875;48.202;16.334;2023-10-31T00:23:35;6.55;;;3.50;;
40154;SDS011;25875;48.202;16.334;2023-10-31T00:26:09;5.43;;;3.13;;
40154;SDS011;25875;48.202;16.334;2023-10-31T00:28:36;4.68;;;3.08;;
40154;SDS011;25875;48.202;16.334;2023-10-31T00:31:04;5.10;;;3.33;;
40154;SDS011;25875;48.202;16.334;2023-10-31T00:33:32;5.13;;;3.25;;
40154;SDS011;25875;48.202;16.334;2023-10-31T00:35:59;6.72;;;3.38;;
40154;SDS011;25875;48.202;16.334;2023-10-31T00:38:25;6.78;;;3.42;;
40154;SDS011;25875;48.202;16.334;2023-10-31T00:40:53;4.40;;;2.83;;
40154;SDS011;25875;48.202;16.334;2023-10-31T00:43:20;4.10;;;2.97;;
40154;SDS011;25875;48.202;16.334;2023-10-31T00:45:47;6.90;;;3.47;;
40154;SDS011;25875;48.202;16.334;2023-10-31T00:48:13;3.95;;;2.95;;
40154;SDS011;25875;48.202;16.334;2023-10-31T00:50:40;4.63;;;3.03;;
40154;SDS011;25875;48.202;16.334;2023-10-31T00:53:07;7.75;;;3.08;;
40154;SDS011;25875;48.202;16.334;2023-10-31T00:55:34;7.07;;;3.28;;
40154;SDS011;25875;48.202;16.334;2023-10-31T00:58:02;5.07;;;3.05;;
40154;SDS011;25875;48.202;16.334;2023-10-31T01:00:29;5.32;;;3.08;;
40154;SDS011;25875;48.202;16.334;2023-10-31T01:02:56;7.28;;;3.50;;
40154;SDS011;25875;48.202;16.334;2023-10-31T01:05:23;4.13;;;2.83;;
40154;SDS011;25875;48.202;16.334;2023-10-31T01:07:51;4.60;;;3.03;;
40154;SDS011;25875;48.202;16.334;2023-10-31T01:10:18;6.13;;;3.60;;
40154;SDS011;25875;48.202;16.334;2023-10-31T01:12:45;7.22;;;3.58;;
40154;SDS011;25875;48.202;16.334;2023-10-31T01:15:13;4.22;;;2.88;;
40154;SDS011;25875;48.202;16.334;2023-10-31T01:17:40;4.13;;;3.08;;
40154;SDS011;25875;48.202;16.334;2023-10-31T01:20:07;5.65;;;3.22;;
40154;SDS011;25875;48.202;16.334;2023-10-31T01:22:35;6.25;;;2.95;;
40154;SDS011;25875;48.202;16.334;2023-10-31T01:25:02;4.95;;;3.47;;
40154;SDS011;25875;48.202;16.334;2023-10-31T01:27:28;9.30;;;3.35;;
40154;SDS011;25875;48.202;16.334;2023-10-31T01:29:55;7.15;;;3.10;;
40154;SDS011;25875;48.202;16.334;2023-10-31T01:32:23;4.65;;;3.30;;
40154;SDS011;25875;48.202;16.334;2023-10-31T01:34:50;10.25;;;3.85;;
40154;SDS011;25875;48.202;16.334;2023-10-31T01:37:17;4.07;;;2.90;;
40154;SDS011;25875;48.202;16.334;2023-10-31T01:39:44;4.78;;;3.03;;
40154;SDS011;25875;48.202;16.334;2023-10-31T01:42:13;6.47;;;3.22;;
40154;SDS011;25875;48.202;16.334;2023-10-31T01:44:40;4.53;;;3.03;;
40154;SDS011;25875;48.202;16.334;2023-10-31T01:47:06;7.13;;;3.28;;
40154;SDS011;25875;48.202;16.334;2023-10-31T01:49:35;6.05;;;3.17;;
40154;SDS011;25875;48.202;16.334;2023-10-31T01:52:02;8.63;;;3.85;;
40154;SDS011;25875;48.202;16.334;2023-10-31T01:54:29;5.78;;;3.33;;
40154;SDS011;25875;48.202;16.334;2023-10-31T01:56:56;4.10;;;3.20;;
40154;SDS011;25875;48.202;16.334;2023-10-31T01:59:24;6.03;;;2.88;;
40154;SDS011;25875;48.202;16.334;2023-10-31T02:01:51;4.50;;;3.10;;
40154;SDS011;25875;48.202;16.334;2023-10-31T02:04:18;4.60;;;3.22;;
40154;SDS011;25875;48.202;16.334;2023-10-31T02:06:46;5.50;;;3.20;;
40154;SDS011;25875;48.202;16.334;2023-10-31T02:09:12;4.88;;;3.47;;
40154;SDS011;25875;48.202;16.334;2023-10-31T02:11:39;5.80;;;3.92;;
40154;SDS011;25875;48.202;16.334;2023-10-31T02:14:06;5.07;;;2.90;;
40154;SDS011;25875;48.202;16.334;2023-10-31T02:16:32;6.32;;;3.15;;
40154;SDS011;25875;48.202;16.334;2023-10-31T02:18:59;7.25;;;3.40;;
40154;SDS011;25875;48.202;16.334;2023-10-31T02:21:26;6.20;;;3.60;;
40154;SDS011;25875;48.202;16.334;2023-10-31T02:23:58;7.60;;;3.42;;
40154;SDS011;25875;48.202;16.334;2023-10-31T02:26:28;4.97;;;3.33;;
40154;SDS011;25875;48.202;16.334;2023-10-31T02:28:55;5.55;;;3.75;;
40154;SDS011;25875;48.202;16.334;2023-10-31T02:31:22;6.15;;;2.75;;
40154;SDS011;25875;48.202;16.334;2023-10-31T02:33:48;5.40;;;3.20;;
40154;SDS011;25875;48.202;16.334;2023-10-31T02:36:15;4.72;;;3.17;;
40154;SDS011;25875;48.202;16.334;2023-10-31T02:38:42;4.75;;;2.72;;
40154;SDS011;25875;48.202;16.334;2023-10-31T02:41:10;5.03;;;3.00;;
40154;SDS011;25875;48.202;16.334;2023-10-31T02:43:37;4.50;;;2.88;;
40154;SDS011;25875;48.202;16.334;2023-10-31T02:46:03;5.03;;;2.65;;
40154;SDS011;25875;48.202;16.334;2023-10-31T02:48:30;3.72;;;2.63;;
40154;SDS011;25875;48.202;16.334;2023-10-31T02:51:03;5.28;;;3.38;;
40154;SDS011;25875;48.202;16.334;2023-10-31T02:53:30;6.25;;;3.15;;
40154;SDS011;25875;48.202;16.334;2023-10-31T02:55:57;6.50;;;3.50;;
40154;SDS011;25875;48.202;16.334;2023-10-31T02:58:25;5.43;;;3.15;;
40154;SDS011;25875;48.202;16.334;2023-10-31T03:00:51;5.03;;;3.10;;
40154;SDS011;25875;48.202;16.334;2023-10-31T03:03:18;7.55;;;3.10;;
40154;SDS011;25875;48.202;16.334;2023-10-31T03:05:45;5.43;;;3.03;;
40154;SDS011;25875;48.202;16.334;2023-10-31T03:08:12;7.57;;;3.08;;
40154;SDS011;25875;48.202;16.334;2023-10-31T03:10:38;4.93;;;3.15;;
40154;SDS011;25875;48.202;16.334;2023-10-31T03:13:05;5.70;;;3.20;;
40154;SDS011;25875;48.202;16.334;2023-10-31T03:15:33;4.43;;;2.65;;
40154;SDS011;25875;48.202;16.334;2023-10-31T03:18:00;4.47;;;2.97;;
40154;SDS011;25875;48.202;16.334;2023-10-31T03:20:27;7.60;;;3.45;;
40154;SDS011;25875;48.202;16.334;2023-10-31T03:22:54;5.43;;;3.65;;
40154;SDS011;25875;48.202;16.334;2023-10-31T03:25:21;3.45;;;2.33;;
40154;SDS011;25875;48.202;16.334;2023-10-31T03:27:47;5.38;;;2.58;;
40154;SDS011;25875;48.202;16.334;2023-10-31T03:30:14;2.67;;;1.75;;
40154;SDS011;25875;48.202;16.334;2023-10-31T03:32:42;4.18;;;2.00;;
40154;SDS011;25875;48.202;16.334;2023-10-31T03:35:09;3.38;;;1.63;;
40154;SDS011;25875;48.202;16.334;2023-10-31T03:37:35;3.17;;;1.77;;
40154;SDS011;25875;48.202;16.334;2023-10-31T03:40:07;2.80;;;1.80;;
40154;SDS011;25875;48.202;16.334;2023-10-31T03:42:34;2.42;;;1.80;;
40154;SDS011;25875;48.202;16.334;2023-10-31T03:45:01;2.28;;;1.60;;
40154;SDS011;25875;48.202;16.334;2023-10-31T03:47:27;2.13;;;1.50;;
40154;SDS011;25875;48.202;16.334;2023-10-31T03:49:56;1.95;;;1.30;;
40154;SDS011;25875;48.202;16.334;2023-10-31T03:52:23;1.88;;;1.27;;
40154;SDS011;25875;48.202;16.334;2023-10-31T03:54:49;1.90;;;1.20;;
40154;SDS011;25875;48.202;16.334;2023-10-31T03:57:16;2.08;;;1.38;;
40154;SDS011;25875;48.202;16.334;2023-10-31T03:59:43;2.25;;;1.48;;
40154;SDS011;25875;48.202;16.334;2023-10-31T04:02:10;1.83;;;1.40;;
40154;SDS011;25875;48.202;16.334;2023-10-31T04:04:36;1.75;;;1.25;;
40154;SDS011;25875;48.202;16.334;2023-10-31T04:07:04;1.60;;;1.20;;
40154;SDS011;25875;48.202;16.334;2023-10-31T04:09:32;1.80;;;1.30;;
40154;SDS011;25875;48.202;16.334;2023-10-31T04:11:58;2.10;;;1.58;;
40154;SDS011;25875;48.202;16.334;2023-10-31T04:14:25;2.25;;;1.55;;
40154;SDS011;25875;48.202;16.334;2023-10-31T04:16:52;2.40;;;1.42;;
40154;SDS011;25875;48.202;16.334;2023-10-31T04:19:18;2.15;;;1.35;;
40154;SDS011;25875;48.202;16.334;2023-10-31T04:21:45;2.58;;;1.40;;
40154;SDS011;25875;48.202;16.334;2023-10-31T04:24:13;2.17;;;1.50;;
40154;SDS011;25875;48.202;16.334;2023-10-31T04:26:40;2.33;;;1.50;;
40154;SDS011;25875;48.202;16.334;2023-10-31T04:29:07;2.28;;;1.67;;
40154;SDS011;25875;48.202;16.334;2023-10-31T04:31:33;2.83;;;1.65;;
40154;SDS011;25875;48.202;16.334;2023-10-31T04:34:00;2.42;;;1.67;;
40154;SDS011;25875;48.202;16.334;2023-10-31T04:36:27;2.33;;;1.52;;
40154;SDS011;25875;48.202;16.334;2023-10-31T04:38:53;2.47;;;1.60;;
40154;SDS011;25875;48.202;16.334;2023-10-31T04:41:22;3.17;;;1.73;;
40154;SDS011;25875;48.202;16.334;2023-10-31T04:43:48;2.10;;;1.50;;
40154;SDS011;25875;48.202;16.334;2023-10-31T04:46:15;2.33;;;1.50;;
40154;SDS011;25875;48.202;16.334;2023-10-31T04:48:42;2.42;;;1.52;;
40154;SDS011;25875;48.202;16.334;2023-10-31T04:51:08;2.00;;;1.40;;
40154;SDS011;25875;48.202;16.334;2023-10-31T04:53:35;2.10;;;1.60;;
40154;SDS011;25875;48.202;16.334;2023-10-31T04:56:02;2.42;;;1.60;;
40154;SDS011;25875;48.202;16.334;2023-10-31T04:58:30;2.10;;;1.55;;
40154;SDS011;25875;48.202;16.334;2023-10-31T05:00:57;2.00;;;1.55;;
40154;SDS011;25875;48.202;16.334;2023-10-31T05:03:24;2.20;;;1.50;;
40154;SDS011;25875;48.202;16.334;2023-10-31T05:05:51;2.05;;;1.40;;
40154;SDS011;25875;48.202;16.334;2023-10-31T05:08:18;2.28;;;1.55;;
40154;SDS011;25875;48.202;16.334;2023-10-31T05:10:45;2.40;;;1.55;;
40154;SDS011;25875;48.202;16.334;2023-10-31T05:13:12;2.05;;;1.40;;
40154;SDS011;25875;48.202;16.334;2023-10-31T05:15:41;2.13;;;1.40;;
40154;SDS011;25875;48.202;16.334;2023-10-31T05:18:08;2.00;;;1.50;;
40154;SDS011;25875;48.202;16.334;2023-10-31T05:20:34;1.73;;;1.30;;
40154;SDS011;25875;48.202;16.334;2023-10-31T05:23:01;2.47;;;1.35;;
40154;SDS011;25875;48.202;16.334;2023-10-31T05:25:28;1.88;;;1.30;;
40154;SDS011;25875;48.202;16.334;2023-10-31T05:27:54;2.42;;;1.40;;
40154;SDS011;25875;48.202;16.334;2023-10-31T05:30:21;2.33;;;1.40;;
40154;SDS011;25875;48.202;16.334;2023-10-31T05:32:50;2.17;;;1.40;;
40154;SDS011;25875;48.202;16.334;2023-10-31T05:35:17;3.38;;;1.80;;
40154;SDS011;25875;48.202;16.334;2023-10-31T05:37:45;1.80;;;1.30;;
40154;SDS011;25875;48.202;16.334;2023-10-31T05:40:12;2.20;;;1.40;;
40154;SDS011;25875;48.202;16.334;2023-10-31T05:42:39;2.58;;;1.75;;
40154;SDS011;25875;48.202;16.334;2023-10-31T05:45:06;3.40;;;2.00;;
40154;SDS011;25875;48.202;16.334;2023-10-31T05:47:33;1.90;;;1.30;;
40154;SDS011;25875;48.202;16.334;2023-10-31T05:50:01;2.72;;;1.48;;
40154;SDS011;25875;48.202;16.334;2023-10-31T05:52:28;2.30;;;1.55;;
40154;SDS011;25875;48.202;16.334;2023-10-31T05:54:55;2.35;;;1.40;;
40154;SDS011;25875;48.202;16.334;2023-10-31T05:57:22;2.03;;;1.50;;
40154;SDS011;25875;48.202;16.334;2023-10-31T05:59:49;2.30;;;1.30;;
40154;SDS011;25875;48.202;16.334;2023-10-31T06:02:15;1.90;;;1.33;;
40154;SDS011;25875;48.202;16.334;2023-10-31T06:04:42;2.17;;;1.40;;
40154;SDS011;25875;48.202;16.334;2023-10-31T06:07:11;2.60;;;1.48;;
40154;SDS011;25875;48.202;16.334;2023-10-31T06:09:38;2.60;;;1.38;;
40154;SDS011;25875;48.202;16.334;2023-10-31T06:12:05;1.90;;;1.30;;
40154;SDS011;25875;48.202;16.334;2023-10-31T06:14:31;1.92;;;1.40;;
40154;SDS011;25875;48.202;16.334;2023-10-31T06:16:58;1.98;;;1.40;;
40154;SDS011;25875;48.202;16.334;2023-10-31T06:19:26;2.10;;;1.40;;
40154;SDS011;25875;48.202;16.334;2023-10-31T06:21:53;1.92;;;1.30;;
40154;SDS011;25875;48.202;16.334;2023-10-31T06:24:21;2.38;;;1.63;;
40154;SDS011;25875;48.202;16.334;2023-10-31T06:26:47;2.47;;;1.48;;
40154;SDS011;25875;48.202;16.334;2023-10-31T06:29:14;1.95;;;1.30;;
40154;SDS011;25875;48.202;16.334;2023-10-31T06:31:41;2.67;;;1.70;;
40154;SDS011;25875;48.202;16.334;2023-10-31T06:34:08;2.13;;;1.45;;
40154;SDS011;25875;48.202;16.334;2023-10-31T06:36:35;2.35;;;1.52;;
40154;SDS011;25875;48.202;16.334;2023-10-31T06:39:01;2.20;;;1.35;;
40154;SDS011;25875;48.202;16.334;2023-10-31T06:41:30;2.05;;;1.27;;
40154;SDS011;25875;48.202;16.334;2023-10-31T06:43:56;3.20;;;1.38;;
40154;SDS011;25875;48.202;16.334;2023-10-31T06:46:23;2.00;;;1.30;;
40154;SDS011;25875;48.202;16.334;2023-10-31T06:48:50;1.65;;;1.20;;
40154;SDS011;25875;48.202;16.334;2023-10-31T06:51:17;2.78;;;1.42;;
40154;SDS011;25875;48.202;16.334;2023-10-31T06:53:44;1.98;;;1.30;;
40154;SDS011;25875;48.202;16.334;2023-10-31T06:56:10;2.28;;;1.50;;
40154;SDS011;25875;48.202;16.334;2023-10-31T06:58:38;3.30;;;2.10;;
40154;SDS011;25875;48.202;16.334;2023-10-31T07:01:05;2.15;;;1.50;;
40154;SDS011;25875;48.202;16.334;2023-10-31T07:03:32;1.88;;;1.38;;
40154;SDS011;25875;48.202;16.334;2023-10-31T07:05:58;1.75;;;1.33;;
40154;SDS011;25875;48.202;16.334;2023-10-31T07:08:25;1.73;;;1.30;;
40154;SDS011;25875;48.202;16.334;2023-10-31T07:10:52;1.67;;;1.20;;
40154;SDS011;25875;48.202;16.334;2023-10-31T07:13:18;2.72;;;1.50;;
40154;SDS011;25875;48.202;16.334;2023-10-31T07:15:47;1.42;;;1.23;;
40154;SDS011;25875;48.202;16.334;2023-10-31T07:18:13;1.90;;;1.20;;
40154;SDS011;25875;48.202;16.334;2023-10-31T07:20:41;4.55;;;1.40;;
40154;SDS011;25875;48.202;16.334;2023-10-31T07:23:08;2.05;;;1.20;;
40154;SDS011;25875;48.202;16.334;2023-10-31T07:25:35;1.70;;;1.20;;
40154;SDS011;25875;48.202;16.334;2023-10-31T07:28:01;1.55;;;1.17;;
40154;SDS011;25875;48.202;16.334;2023-10-31T07:30:28;1.83;;;1.20;;
40154;SDS011;25875;48.202;16.334;2023-10-31T07:32:56;1.60;;;1.20;;
40154;SDS011;25875;48.202;16.334;2023-10-31T07:35:23;2.25;;;1.55;;
40154;SDS011;25875;48.202;16.334;2023-10-31T07:37:50;1.65;;;1.10;;
40154;SDS011;25875;48.202;16.334;2023-10-31T07:40:16;1.73;;;1.25;;
40154;SDS011;25875;48.202;16.334;2023-10-31T07:42:43;1.50;;;1.10;;
40154;SDS011;25875;48.202;16.334;2023-10-31T07:45:10;1.88;;;1.35;;
40154;SDS011;25875;48.202;16.334;2023-10-31T07:47:36;1.85;;;1.20;;
40154;SDS011;25875;48.202;16.334;2023-10-31T07:50:05;2.03;;;1.40;;
40154;SDS011;25875;48.202;16.334;2023-10-31T07:52:32;1.67;;;1.23;;
40154;SDS011;25875;48.202;16.334;2023-10-31T07:54:59;1.75;;;1.20;;
40154;SDS011;25875;48.202;16.334;2023-10-31T07:57:25;1.60;;;1.30;;
40154;SDS011;25875;48.202;16.334;2023-10-31T07:59:52;3.20;;;1.30;;
40154;SDS011;25875;48.202;16.334;2023-10-31T08:02:19;1.63;;;1.20;;
40154;SDS011;25875;48.202;16.334;2023-10-31T08:04:45;2.10;;;1.30;;
40154;SDS011;25875;48.202;16.334;2023-10-31T08:07:13;2.20;;;1.40;;
40154;SDS011;25875;48.202;16.334;2023-10-31T08:09:40;1.75;;;1.30;;
40154;SDS011;25875;48.202;16.334;2023-10-31T08:12:07;2.00;;;1.30;;
40154;SDS011;25875;48.202;16.334;2023-10-31T08:14:35;3.30;;;1.50;;
40154;SDS011;25875;48.202;16.334;2023-10-31T08:17:02;2.60;;;1.40;;
40154;SDS011;25875;48.202;16.334;2023-10-31T08:19:29;3.67;;;1.25;;
40154;SDS011;25875;48.202;16.334;2023-10-31T08:21:55;1.67;;;1.20;;
40154;SDS011;25875;48.202;16.334;2023-10-31T08:24:23;1.88;;;1.40;;
40154;SDS011;25875;48.202;16.334;2023-10-31T08:26:50;1.42;;;1.17;;
40154;SDS011;25875;48.202;16.334;2023-10-31T08:29:17;1.88;;;1.30;;
40154;SDS011;25875;48.202;16.334;2023-10-31T08:31:43;2.13;;;1.40;;
40154;SDS011;25875;48.202;16.334;2023-10-31T08:34:10;1.73;;;1.17;;
40154;SDS011;25875;48.202;16.334;2023-10-31T08:36:37;2.75;;;1.30;;
40154;SDS011;25875;48.202;16.334;2023-10-31T08:39:04;3.33;;;1.50;;
40154;SDS011;25875;48.202;16.334;2023-10-31T08:41:32;1.65;;;1.20;;
40154;SDS011;25875;48.202;16.334;2023-10-31T08:43:59;3.13;;;1.40;;
40154;SDS011;25875;48.202;16.334;2023-10-31T08:46:26;1.58;;;1.20;;
40154;SDS011;25875;48.202;16.334;2023-10-31T08:48:53;1.50;;;1.10;;
40154;SDS011;25875;48.202;16.334;2023-10-31T08:51:20;3.95;;;1.50;;
40154;SDS011;25875;48.202;16.334;2023-10-31T08:53:48;1.58;;;1.10;;
40154;SDS011;25875;48.202;16.334;2023-10-31T08:56:15;2.17;;;1.33;;
40154;SDS011;25875;48.202;16.334;2023-10-31T08:58:43;1.77;;;1.20;;
40154;SDS011;25875;48.202;16.334;2023-10-31T09:01:09;2.53;;;1.30;;
40154;SDS011;25875;48.202;16.334;2023-10-31T09:03:36;2.22;;;1.55;;
40154;SDS011;25875;48.202;16.334;2023-10-31T09:06:03;2.40;;;1.50;;
40154;SDS011;25875;48.202;16.334;2023-10-31T09:08:30;1.55;;;1.25;;
40154;SDS011;25875;48.202;16.334;2023-10-31T09:10:59;2.70;;;1.30;;
40154;SDS011;25875;48.202;16.334;2023-10-31T09:13:26;1.80;;;1.30;;
40154;SDS011;25875;48.202;16.334;2023-10-31T09:15:55;2.15;;;1.40;;
40154;SDS011;25875;48.202;16.334;2023-10-31T09:18:21;2.05;;;1.40;;
40154;SDS011;25875;48.202;16.334;2023-10-31T09:20:49;1.98;;;1.30;;
40154;SDS011;25875;48.202;16.334;2023-10-31T09:23:17;2.00;;;1.25;;
40154;SDS011;25875;48.202;16.334;2023-10-31T09:25:44;1.80;;;1.40;;
40154;SDS011;25875;48.202;16.334;2023-10-31T09:28:11;2.22;;;1.27;;
40154;SDS011;25875;48.202;16.334;2023-10-31T09:30:38;1.95;;;1.30;;
40154;SDS011;25875;48.202;16.334;2023-10-31T09:33:06;1.80;;;1.20;;
40154;SDS011;25875;48.202;16.334;2023-10-31T09:35:33;4.28;;;1.50;;
40154;SDS011;25875;48.202;16.334;2023-10-31T09:37:59;1.98;;;1.20;;
40154;SDS011;25875;48.202;16.334;2023-10-31T09:40:26;1.80;;;1.20;;
40154;SDS011;25875;48.202;16.334;2023-10-31T09:42:53;2.53;;;1.40;;
40154;SDS011;25875;48.202;16.334;2023-10-31T09:45:20;1.77;;;1.20;;
40154;SDS011;25875;48.202;16.334;2023-10-31T09:47:46;1.70;;;1.25;;
40154;SDS011;25875;48.202;16.334;2023-10-31T09:50:15;1.85;;;1.25;;
40154;SDS011;25875;48.202;16.334;2023-10-31T09:52:41;4.90;;;1.38;;
40154;SDS011;25875;48.202;16.334;2023-10-31T09:55:08;2.03;;;1.33;;
40154;SDS011;25875;48.202;16.334;2023-10-31T09:57:35;2.40;;;1.30;;
40154;SDS011;25875;48.202;16.334;2023-10-31T10:00:02;2.13;;;1.40;;
40154;SDS011;25875;48.202;16.334;2023-10-31T10:02:29;3.45;;;1.30;;
40154;SDS011;25875;48.202;16.334;2023-10-31T10:04:56;2.92;;;1.77;;
40154;SDS011;25875;48.202;16.334;2023-10-31T10:07:25;2.58;;;1.77;;
40154;SDS011;25875;48.202;16.334;2023-10-31T10:09:52;2.10;;;1.40;;
40154;SDS011;25875;48.202;16.334;2023-10-31T10:12:18;2.50;;;1.70;;
40154;SDS011;25875;48.202;16.334;2023-10-31T10:14:45;1.58;;;1.23;;
40154;SDS011;25875;48.202;16.334;2023-10-31T10:17:15;1.90;;;1.23;;
40154;SDS011;25875;48.202;16.334;2023-10-31T10:19:43;1.80;;;1.30;;
40154;SDS011;25875;48.202;16.334;2023-10-31T10:22:10;4.43;;;1.50;;
40154;SDS011;25875;48.202;16.334;2023-10-31T10:24:40;2.53;;;1.63;;
40154;SDS011;25875;48.202;16.334;2023-10-31T10:27:07;2.00;;;1.30;;
40154;SDS011;25875;48.202;16.334;2023-10-31T10:29:35;2.25;;;1.50;;
40154;SDS011;25875;48.202;16.334;2023-10-31T10:32:05;3.53;;;1.73;;
40154;SDS011;25875;48.202;16.334;2023-10-31T10:34:34;3.10;;;1.30;;
40154;SDS011;25875;48.202;16.334;2023-10-31T10:37:03;2.17;;;1.45;;
40154;SDS011;25875;48.202;16.334;2023-10-31T10:39:32;2.60;;;1.52;;
40154;SDS011;25875;48.202;16.334;2023-10-31T10:42:01;2.05;;;1.40;;
40154;SDS011;25875;48.202;16.334;2023-10-31T10:44:33;2.60;;;1.70;;
40154;SDS011;25875;48.202;16.334;2023-10-31T10:47:01;3.42;;;1.77;;
40154;SDS011;25875;48.202;16.334;2023-10-31T10:49:32;3.10;;;1.80;;
40154;SDS011;25875;48.202;16.334;2023-10-31T10:52:01;2.65;;;1.58;;
40154;SDS011;25875;48.202;16.334;2023-10-31T10:54:42;2.58;;;1.85;;
40154;SDS011;25875;48.202;16.334;2023-10-31T10:57:14;2.03;;;1.30;;
40154;SDS011;25875;48.202;16.334;2023-10-31T10:59:46;3.05;;;1.88;;
40154;SDS011;25875;48.202;16.334;2023-10-31T11:02:16;3.75;;;1.60;;
40154;SDS011;25875;48.202;16.334;2023-10-31T11:04:44;2.63;;;1.42;;
40154;SDS011;25875;48.202;16.334;2023-10-31T11:07:11;3.22;;;1.58;;
40154;SDS011;25875;48.202;16.334;2023-10-31T11:09:38;2.97;;;1.52;;
40154;SDS011;25875;48.202;16.334;2023-10-31T11:12:08;2.75;;;1.45;;
40154;SDS011;25875;48.202;16.334;2023-10-31T11:14:38;2.42;;;1.40;;
40154;SDS011;25875;48.202;16.334;2023-10-31T11:17:09;2.15;;;1.38;;
40154;SDS011;25875;48.202;16.334;2023-10-31T11:19:43;2.88;;;1.70;;
40154;SDS011;25875;48.202;16.334;2023-10-31T11:22:10;2.90;;;1.73;;
40154;SDS011;25875;48.202;16.334;2023-10-31T11:24:37;2.10;;;1.33;;
40154;SDS011;25875;48.202;16.334;2023-10-31T11:27:06;2.17;;;1.50;;
40154;SDS011;25875;48.202;16.334;2023-10-31T11:29:37;3.05;;;1.85;;
40154;SDS011;25875;48.202;16.334;2023-10-31T11:32:07;2.75;;;1.40;;
40154;SDS011;25875;48.202;16.334;2023-10-31T11:34:36;2.90;;;1.58;;
40154;SDS011;25875;48.202;16.334;2023-10-31T11:40:15;2.38;;;1.40;;
40154;SDS011;25875;48.202;16.334;2023-10-31T11:42:47;2.38;;;1.50;;
40154;SDS011;25875;48.202;16.334;2023-10-31T11:45:29;2.15;;;1.50;;
40154;SDS011;25875;48.202;16.334;2023-10-31T11:48:00;2.60;;;1.63;;
40154;SDS011;25875;48.202;16.334;2023-10-31T11:50:29;1.98;;;1.30;;
40154;SDS011;25875;48.202;16.334;2023-10-31T11:53:03;3.42;;;1.63;;
40154;SDS011;25875;48.202;16.334;2023-10-31T11:55:32;1.75;;;1.17;;
40154;SDS011;25875;48.202;16.334;2023-10-31T12:00:44;2.30;;;1.35;;
40154;SDS011;25875;48.202;16.334;2023-10-31T12:03:11;2.55;;;1.42;;
40154;SDS011;25875;48.202;16.334;2023-10-31T12:05:40;2.33;;;1.38;;
40154;SDS011;25875;48.202;16.334;2023-10-31T12:08:22;2.30;;;1.38;;
40154;SDS011;25875;48.202;16.334;2023-10-31T12:10:50;3.75;;;1.58;;
40154;SDS011;25875;48.202;16.334;2023-10-31T12:13:17;2.42;;;1.60;;
40154;SDS011;25875;48.202;16.334;2023-10-31T12:15:52;2.17;;;1.48;;
40154;SDS011;25875;48.202;16.334;2023-10-31T12:18:19;2.60;;;1.40;;
40154;SDS011;25875;48.202;16.334;2023-10-31T12:20:46;2.45;;;1.40;;
40154;SDS011;25875;48.202;16.334;2023-10-31T12:23:14;2.65;;;1.50;;
40154;SDS011;25875;48.202;16.334;2023-10-31T12:25:45;2.25;;;1.50;;
40154;SDS011;25875;48.202;16.334;2023-10-31T12:28:16;2.00;;;1.30;;
40154;SDS011;25875;48.202;16.334;2023-10-31T12:30:44;3.15;;;1.92;;
40154;SDS011;25875;48.202;16.334;2023-10-31T12:33:13;2.55;;;1.60;;
40154;SDS011;25875;48.202;16.334;2023-10-31T12:35:40;2.70;;;1.40;;
40154;SDS011;25875;48.202;16.334;2023-10-31T12:38:09;2.55;;;1.77;;
40154;SDS011;25875;48.202;16.334;2023-10-31T12:40:36;2.38;;;1.40;;
40154;SDS011;25875;48.202;16.334;2023-10-31T12:43:04;2.38;;;1.30;;
40154;SDS011;25875;48.202;16.334;2023-10-31T12:45:31;4.07;;;2.45;;
40154;SDS011;25875;48.202;16.334;2023-10-31T12:48:01;3.15;;;1.73;;
40154;SDS011;25875;48.202;16.334;2023-10-31T12:50:31;3.70;;;2.40;;
40154;SDS011;25875;48.202;16.334;2023-10-31T12:52:58;4.38;;;2.10;;
40154;SDS011;25875;48.202;16.334;2023-10-31T12:55:26;2.67;;;1.60;;
40154;SDS011;25875;48.202;16.334;2023-10-31T12:57:54;2.60;;;1.73;;
40154;SDS011;25875;48.202;16.334;2023-10-31T13:00:22;2.25;;;1.42;;
40154;SDS011;25875;48.202;16.334;2023-10-31T13:02:58;2.75;;;1.30;;
40154;SDS011;25875;48.202;16.334;2023-10-31T13:05:26;2.35;;;1.50;;
40154;SDS011;25875;48.202;16.334;2023-10-31T13:07:56;2.35;;;1.52;;
40154;SDS011;25875;48.202;16.334;2023-10-31T13:10:26;2.70;;;1.50;;
40154;SDS011;25875;48.202;16.334;2023-10-31T13:12:53;3.10;;;1.60;;
40154;SDS011;25875;48.202;16.334;2023-10-31T13:15:21;3.17;;;1.48;;
40154;SDS011;25875;48.202;16.334;2023-10-31T13:17:48;2.92;;;1.48;;
40154;SDS011;25875;48.202;16.334;2023-10-31T13:20:16;2.38;;;1.40;;
40154;SDS011;25875;48.202;16.334;2023-10-31T13:22:44;2.17;;;1.40;;
40154;SDS011;25875;48.202;16.334;2023-10-31T13:25:13;2.60;;;1.80;;
40154;SDS011;25875;48.202;16.334;2023-10-31T13:27:41;2.20;;;1.58;;
40154;SDS011;25875;48.202;16.334;2023-10-31T13:30:09;3.17;;;1.60;;
40154;SDS011;25875;48.202;16.334;2023-10-31T13:32:37;2.83;;;1.60;;
40154;SDS011;25875;48.202;16.334;2023-10-31T13:35:04;2.63;;;1.60;;
40154;SDS011;25875;48.202;16.334;2023-10-31T13:37:31;2.65;;;1.60;;
40154;SDS011;25875;48.202;16.334;2023-10-31T13:39:59;2.35;;;1.55;;
40154;SDS011;25875;48.202;16.334;2023-10-31T13:42:28;2.65;;;1.70;;
40154;SDS011;25875;48.202;16.334;2023-10-31T13:44:54;2.85;;;1.52;;
40154;SDS011;25875;48.202;16.334;2023-10-31T13:47:21;2.97;;;1.50;;
40154;SDS011;25875;48.202;16.334;2023-10-31T13:49:48;2.92;;;1.40;;
40154;SDS011;25875;48.202;16.334;2023-10-31T13:52:15;2.65;;;1.52;;
40154;SDS011;25875;48.202;16.334;2023-10-31T13:54:41;2.33;;;1.48;;
40154;SDS011;25875;48.202;16.334;2023-10-31T13:57:08;3.05;;;1.95;;
40154;SDS011;25875;48.202;16.334;2023-10-31T13:59:36;2.47;;;1.70;;
40154;SDS011;25875;48.202;16.334;2023-10-31T14:02:03;2.28;;;1.70;;
40154;SDS011;25875;48.202;16.334;2023-10-31T14:04:30;3.10;;;1.35;;
40154;SDS011;25875;48.202;16.334;2023-10-31T14:06:57;2.67;;;1.77;;
40154;SDS011;25875;48.202;16.334;2023-10-31T14:09:24;2.58;;;1.55;;
40154;SDS011;25875;48.202;16.334;2023-10-31T14:11:51;2.55;;;1.58;;
40154;SDS011;25875;48.202;16.334;2023-10-31T14:14:18;3.35;;;1.63;;
40154;SDS011;25875;48.202;16.334;2023-10-31T14:16:47;3.00;;;2.00;;
40154;SDS011;25875;48.202;16.334;2023-10-31T14:19:14;4.97;;;1.90;;
40154;SDS011;25875;48.202;16.334;2023-10-31T14:21:41;3.20;;;1.80;;
40154;SDS011;25875;48.202;16.334;2023-10-31T14:24:08;3.20;;;1.65;;
40154;SDS011;25875;48.202;16.334;2023-10-31T14:26:35;2.47;;;1.48;;
40154;SDS011;25875;48.202;16.334;2023-10-31T14:29:03;2.75;;;1.80;;
40154;SDS011;25875;48.202;16.334;2023-10-31T14:31:30;2.88;;;1.80;;
40154;SDS011;25875;48.202;16.334;2023-10-31T14:33:59;2.10;;;1.40;;
40154;SDS011;25875;48.202;16.334;2023-10-31T14:36:26;2.92;;;1.50;;
40154;SDS011;25875;48.202;16.334;2023-10-31T14:38:53;3.30;;;1.45;;
40154;SDS011;25875;48.202;16.334;2023-10-31T14:41:20;2.35;;;1.45;;